createdAt,value
2023-05-15T00:01:13.151Z,0
2023-05-15T00:02:29.274Z,0
2023-05-15T00:03:45.411Z,0
2023-05-15T00:05:01.529Z,0
2023-05-15T00:06:17.648Z,0
2023-05-15T00:07:32.810Z,0
2023-05-15T00:08:48.933Z,0
2023-05-15T00:10:05.058Z,0
2023-05-15T00:11:21.193Z,0
2023-05-15T00:12:37.322Z,0
2023-05-15T00:13:53.438Z,0
2023-05-15T00:15:09.574Z,0
2023-05-15T00:16:25.698Z,0
2023-05-15T00:17:41.816Z,0
2023-05-15T00:18:57.942Z,0
2023-05-15T00:20:14.093Z,0
2023-05-15T00:21:30.208Z,0
2023-05-15T00:22:46.340Z,0
2023-05-15T00:24:01.486Z,0
2023-05-15T00:25:17.623Z,0
2023-05-15T00:26:33.756Z,0
2023-05-15T00:27:49.877Z,0
2023-05-15T00:29:06.019Z,0
2023-05-15T00:30:22.141Z,0
2023-05-15T00:31:38.278Z,0
2023-05-15T00:32:54.423Z,0
2023-05-15T00:34:10.537Z,0
2023-05-15T00:35:26.682Z,0
2023-05-15T00:36:42.789Z,0
2023-05-15T00:37:58.934Z,0
2023-05-15T00:39:15.049Z,0
2023-05-15T00:40:30.211Z,0
2023-05-15T00:41:46.357Z,0
2023-05-15T00:43:02.477Z,0
2023-05-15T00:44:18.615Z,0
2023-05-15T00:45:34.732Z,0
2023-05-15T00:46:50.862Z,0
2023-05-15T00:48:07.002Z,0
2023-05-15T00:49:23.125Z,0
2023-05-15T00:50:39.270Z,0
2023-05-15T00:51:55.405Z,0
2023-05-15T00:53:11.522Z,0
2023-05-15T00:54:27.659Z,0
2023-05-15T00:55:43.784Z,0
2023-05-15T00:56:58.916Z,0
2023-05-15T00:58:15.045Z,0
2023-05-15T00:59:31.182Z,0
2023-05-15T01:00:47.296Z,0
2023-05-15T01:02:03.433Z,0
2023-05-15T01:03:19.542Z,0
2023-05-15T01:04:35.673Z,0
2023-05-15T01:05:51.805Z,0
2023-05-15T01:07:07.937Z,0
2023-05-15T01:08:24.072Z,0
2023-05-15T01:09:40.190Z,0
2023-05-15T01:10:56.313Z,0
2023-05-15T01:12:12.449Z,0
2023-05-15T01:13:27.596Z,0
2023-05-15T01:14:43.721Z,0
2023-05-15T01:15:59.849Z,0
2023-05-15T01:17:15.996Z,0
2023-05-15T01:18:32.130Z,0
2023-05-15T01:19:48.238Z,0
2023-05-15T01:21:04.372Z,0
2023-05-15T01:22:20.512Z,0
2023-05-15T01:23:36.635Z,0
2023-05-15T01:24:52.784Z,0
2023-05-15T01:26:08.907Z,0
2023-05-15T01:27:25.037Z,0
2023-05-15T01:28:41.167Z,0
2023-05-15T01:29:56.329Z,0
2023-05-15T01:31:12.445Z,0
2023-05-15T01:32:28.581Z,0
2023-05-15T01:33:44.713Z,0
2023-05-15T01:35:00.834Z,0
2023-05-15T01:36:16.978Z,0
2023-05-15T01:37:32.133Z,0
2023-05-15T01:38:48.269Z,0
2023-05-15T01:40:04.384Z,0
2023-05-15T01:41:20.514Z,0
2023-05-15T01:42:36.644Z,0
2023-05-15T01:43:52.782Z,0
2023-05-15T01:45:08.911Z,0
2023-05-15T01:46:25.049Z,0
2023-05-15T01:47:41.169Z,0
2023-05-15T01:48:57.292Z,0
2023-05-15T01:50:13.415Z,0
2023-05-15T01:51:29.559Z,0
2023-05-15T01:52:45.682Z,0
2023-05-15T01:54:00.822Z,0
2023-05-15T01:55:16.956Z,0
2023-05-15T01:56:33.088Z,0
2023-05-15T01:57:49.218Z,0
2023-05-15T01:59:05.350Z,0
2023-05-15T02:00:21.473Z,0
2023-05-15T02:01:37.599Z,0
2023-05-15T02:02:53.738Z,0
2023-05-15T02:04:09.873Z,0
2023-05-15T02:05:25.995Z,0
2023-05-15T02:06:42.111Z,0
2023-05-15T02:07:58.241Z,0
2023-05-15T02:09:14.377Z,0
2023-05-15T02:10:29.518Z,0
2023-05-15T02:11:45.648Z,0
2023-05-15T02:13:01.791Z,0
2023-05-15T02:14:17.929Z,0
2023-05-15T02:15:34.043Z,0
2023-05-15T02:16:50.188Z,0
2023-05-15T02:18:06.303Z,0
2023-05-15T02:19:22.441Z,0
2023-05-15T02:20:38.576Z,0
2023-05-15T02:21:54.702Z,0
2023-05-15T02:23:10.817Z,0
2023-05-15T02:24:26.965Z,0
2023-05-15T02:25:43.095Z,0
2023-05-15T02:26:58.250Z,0
2023-05-15T02:28:14.374Z,0
2023-05-15T02:29:30.512Z,0
2023-05-15T02:30:46.660Z,0
2023-05-15T02:32:02.789Z,0
2023-05-15T02:33:18.941Z,0
2023-05-15T02:34:35.064Z,0
2023-05-15T02:35:51.200Z,0
2023-05-15T02:37:07.323Z,0
2023-05-15T02:38:23.466Z,0
2023-05-15T02:39:39.610Z,0
2023-05-15T02:40:55.725Z,0
2023-05-15T02:42:11.869Z,0
2023-05-15T02:43:27.003Z,0
2023-05-15T02:44:43.155Z,0
2023-05-15T02:45:59.292Z,0
2023-05-15T02:47:15.413Z,0
2023-05-15T02:48:31.557Z,0
2023-05-15T02:49:47.701Z,0
2023-05-15T02:51:03.840Z,0
2023-05-15T02:52:19.974Z,0
2023-05-15T02:53:36.120Z,0
2023-05-15T02:54:52.254Z,0
2023-05-15T02:56:08.392Z,0
2023-05-15T02:57:24.537Z,0
2023-05-15T02:58:40.672Z,0
2023-05-15T02:59:55.820Z,0
2023-05-15T03:01:11.942Z,0
2023-05-15T03:02:28.082Z,0
2023-05-15T03:03:44.216Z,0
2023-05-15T03:05:00.366Z,0
2023-05-15T03:06:16.503Z,0
2023-05-15T03:07:32.621Z,0
2023-05-15T03:08:48.764Z,0
2023-05-15T03:10:04.906Z,0
2023-05-15T03:11:21.022Z,0
2023-05-15T03:12:37.167Z,0
2023-05-15T03:13:53.300Z,0
2023-05-15T03:15:09.439Z,0
2023-05-15T03:16:24.593Z,0
2023-05-15T03:17:40.731Z,0
2023-05-15T03:18:56.874Z,0
2023-05-15T03:20:13.012Z,0
2023-05-15T03:21:29.141Z,0
2023-05-15T03:22:45.278Z,0
2023-05-15T03:24:01.407Z,0
2023-05-15T03:25:17.537Z,0
2023-05-15T03:26:33.687Z,0
2023-05-15T03:27:49.820Z,4
2023-05-15T03:29:05.947Z,4
2023-05-15T03:30:22.098Z,0
2023-05-15T03:31:38.241Z,4
2023-05-15T03:32:53.397Z,4
2023-05-15T03:34:09.540Z,4
2023-05-15T03:35:25.684Z,4
2023-05-15T03:36:41.827Z,8
2023-05-15T03:37:57.964Z,8
2023-05-15T03:39:14.101Z,8
2023-05-15T03:40:30.245Z,8
2023-05-15T03:41:46.374Z,12
2023-05-15T03:43:02.525Z,12
2023-05-15T03:44:18.669Z,12
2023-05-15T03:45:34.803Z,16
2023-05-15T03:46:50.936Z,16
2023-05-15T03:48:07.073Z,16
2023-05-15T03:49:22.230Z,20
2023-05-15T03:50:38.356Z,24
2023-05-15T03:51:54.486Z,24
2023-05-15T03:53:10.623Z,28
2023-05-15T03:54:26.746Z,28
2023-05-15T03:55:42.889Z,32
2023-05-15T03:58:15.157Z,36
2023-05-15T03:59:31.299Z,40
2023-05-15T04:00:47.436Z,40
2023-05-15T04:02:03.558Z,44
2023-05-15T04:03:19.696Z,44
2023-05-15T04:04:35.000Z,52
2023-05-15T04:05:50.993Z,52
2023-05-15T04:07:07.123Z,56
2023-05-15T04:08:23.260Z,60
2023-05-15T04:09:39.411Z,64
2023-05-15T04:10:55.539Z,68
2023-05-15T04:12:11.677Z,72
2023-05-15T04:13:27.828Z,72
2023-05-15T04:14:43.971Z,76
2023-05-15T04:16:00.109Z,84
2023-05-15T04:17:16.252Z,84
2023-05-15T04:18:32.375Z,88
2023-05-15T04:19:48.525Z,92
2023-05-15T04:21:04.671Z,100
2023-05-15T04:22:19.819Z,100
2023-05-15T04:23:35.975Z,108
2023-05-15T04:24:52.101Z,108
2023-05-15T04:26:08.255Z,116
2023-05-15T04:27:24.386Z,120
2023-05-15T04:28:40.532Z,124
2023-05-15T04:29:56.659Z,128
2023-05-15T04:31:12.803Z,132
2023-05-15T04:32:28.952Z,136
2023-05-15T04:33:45.078Z,140
2023-05-15T04:35:01.228Z,144
2023-05-15T04:36:17.361Z,148
2023-05-15T04:37:33.509Z,152
2023-05-15T04:38:48.675Z,156
2023-05-15T04:40:04.817Z,160
2023-05-15T04:41:20.943Z,160
2023-05-15T04:42:37.086Z,164
2023-05-15T04:43:53.237Z,168
2023-05-15T04:45:09.387Z,176
2023-05-15T04:46:25.517Z,176
2023-05-15T04:47:41.661Z,180
2023-05-15T04:48:57.784Z,184
2023-05-15T04:50:13.935Z,188
2023-05-15T04:51:30.072Z,192
2023-05-15T04:52:46.208Z,196
2023-05-15T04:54:02.330Z,200
2023-05-15T04:55:17.500Z,204
2023-05-15T04:56:33.626Z,208
2023-05-15T04:57:49.761Z,216
2023-05-15T04:59:05.893Z,220
2023-05-15T05:00:22.039Z,224
2023-05-15T05:01:38.171Z,232
2023-05-15T05:02:54.306Z,236
2023-05-15T05:04:10.457Z,244
2023-05-15T05:05:26.588Z,248
2023-05-15T05:06:42.737Z,256
2023-05-15T05:07:58.873Z,260
2023-05-15T05:09:15.025Z,268
2023-05-15T05:10:31.156Z,272
2023-05-15T05:11:46.317Z,280
2023-05-15T05:13:02.453Z,280
2023-05-15T05:14:18.583Z,288
2023-05-15T05:15:34.713Z,288
2023-05-15T05:16:50.851Z,292
2023-05-15T05:18:06.998Z,292
2023-05-15T05:19:23.130Z,292
2023-05-15T05:20:39.267Z,296
2023-05-15T05:21:55.403Z,296
2023-05-15T05:23:11.547Z,292
2023-05-15T05:24:27.690Z,296
2023-05-15T05:25:43.834Z,300
2023-05-15T05:26:59.956Z,300
2023-05-15T05:28:15.119Z,300
2023-05-15T05:29:31.255Z,300
2023-05-15T05:30:47.406Z,300
2023-05-15T05:32:03.536Z,300
2023-05-15T05:33:19.695Z,304
2023-05-15T05:34:35.827Z,304
2023-05-15T05:35:51.953Z,304
2023-05-15T05:37:08.111Z,308
2023-05-15T05:38:24.247Z,312
2023-05-15T05:39:40.391Z,308
2023-05-15T05:40:56.535Z,312
2023-05-15T05:42:12.672Z,312
2023-05-15T05:43:28.815Z,308
2023-05-15T05:44:43.971Z,308
2023-05-15T05:46:00.108Z,312
2023-05-15T05:47:16.253Z,296
2023-05-15T05:48:32.387Z,292
2023-05-15T05:49:48.545Z,288
2023-05-15T05:51:04.675Z,288
2023-05-15T05:52:19.845Z,288
2023-05-15T05:53:35.980Z,288
2023-05-15T05:54:52.134Z,284
2023-05-15T05:56:08.262Z,284
2023-05-15T05:57:24.399Z,284
2023-05-15T05:58:40.535Z,288
2023-05-15T05:59:56.685Z,284
2023-05-15T06:01:12.837Z,288
2023-05-15T06:02:28.974Z,288
2023-05-15T06:03:45.131Z,288
2023-05-15T06:05:01.262Z,288
2023-05-15T06:06:17.418Z,288
2023-05-15T06:07:33.552Z,292
2023-05-15T06:08:48.717Z,292
2023-05-15T06:10:04.855Z,296
2023-05-15T06:11:20.990Z,296
2023-05-15T06:12:37.128Z,300
2023-05-15T06:13:53.270Z,300
2023-05-15T06:15:09.408Z,300
2023-05-15T06:16:25.545Z,300
2023-05-15T06:17:41.680Z,300
2023-05-15T06:18:57.825Z,300
2023-05-15T06:20:13.955Z,280
2023-05-15T06:21:30.105Z,276
2023-05-15T06:22:46.237Z,268
2023-05-15T06:24:02.389Z,232
2023-05-15T06:25:17.527Z,196
2023-05-15T06:26:33.670Z,208
2023-05-15T06:27:49.802Z,220
2023-05-15T06:29:05.939Z,208
2023-05-15T06:30:22.081Z,228
2023-05-15T06:31:38.217Z,240
2023-05-15T06:32:54.354Z,264
2023-05-15T06:34:10.483Z,276
2023-05-15T06:35:26.619Z,292
2023-05-15T06:36:42.771Z,336
2023-05-15T06:37:58.901Z,352
2023-05-15T06:39:15.036Z,328
2023-05-15T06:40:31.174Z,368
2023-05-15T06:41:46.321Z,380
2023-05-15T06:43:02.459Z,380
2023-05-15T06:44:18.596Z,416
2023-05-15T06:45:34.737Z,392
2023-05-15T06:46:50.882Z,380
2023-05-15T06:48:07.025Z,380
2023-05-15T06:49:23.149Z,400
2023-05-15T06:50:39.300Z,440
2023-05-15T06:51:55.438Z,424
2023-05-15T06:53:11.573Z,416
2023-05-15T06:54:27.716Z,408
2023-05-15T06:55:43.854Z,448
2023-05-15T06:56:59.990Z,428
2023-05-15T06:58:15.139Z,468
2023-05-15T06:59:31.275Z,456
2023-05-15T07:00:47.420Z,484
2023-05-15T07:02:03.556Z,456
2023-05-15T07:03:19.678Z,436
2023-05-15T07:04:35.814Z,444
2023-05-15T07:05:51.966Z,444
2023-05-15T07:07:08.096Z,460
2023-05-15T07:08:24.239Z,464
2023-05-15T07:09:40.383Z,508
2023-05-15T07:10:56.511Z,492
2023-05-15T07:12:12.649Z,496
2023-05-15T07:13:28.806Z,484
2023-05-15T07:14:43.945Z,512
2023-05-15T07:16:00.101Z,548
2023-05-15T07:17:16.221Z,528
2023-05-15T07:18:32.365Z,564
2023-05-15T07:19:48.509Z,524
2023-05-15T07:21:04.654Z,512
2023-05-15T07:22:20.775Z,580
2023-05-15T07:23:36.911Z,640
2023-05-15T07:24:53.055Z,692
2023-05-15T07:26:09.193Z,692
2023-05-15T07:27:25.308Z,712
2023-05-15T07:28:41.446Z,600
2023-05-15T07:29:57.581Z,584
2023-05-15T07:31:12.722Z,552
2023-05-15T07:32:28.865Z,556
2023-05-15T07:33:44.996Z,560
2023-05-15T07:35:01.132Z,568
2023-05-15T07:36:17.268Z,596
2023-05-15T07:37:33.408Z,652
2023-05-15T07:38:49.549Z,664
2023-05-15T07:40:05.685Z,688
2023-05-15T07:41:21.815Z,740
2023-05-15T07:42:37.951Z,656
2023-05-15T07:43:54.103Z,644
2023-05-15T07:45:10.240Z,648
2023-05-15T07:46:26.363Z,628
2023-05-15T07:47:41.524Z,616
2023-05-15T07:48:57.646Z,600
2023-05-15T07:50:13.782Z,620
2023-05-15T07:51:29.927Z,612
2023-05-15T07:52:46.064Z,620
2023-05-15T07:54:02.201Z,620
2023-05-15T07:55:18.331Z,616
2023-05-15T07:56:34.467Z,616
2023-05-15T07:57:50.610Z,612
2023-05-15T07:59:06.739Z,612
2023-05-15T08:00:22.871Z,616
2023-05-15T08:01:38.992Z,616
2023-05-15T08:02:55.136Z,616
2023-05-15T08:04:10.272Z,628
2023-05-15T08:05:26.408Z,636
2023-05-15T08:06:42.546Z,620
2023-05-15T08:07:58.688Z,608
2023-05-15T08:09:14.822Z,592
2023-05-15T08:10:30.961Z,584
2023-05-15T08:11:47.098Z,576
2023-05-15T08:13:03.246Z,572
2023-05-15T08:14:19.378Z,564
2023-05-15T08:15:35.514Z,560
2023-05-15T08:16:51.644Z,552
2023-05-15T08:18:07.763Z,552
2023-05-15T08:19:23.891Z,552
2023-05-15T08:20:39.039Z,548
2023-05-15T08:21:55.174Z,556
2023-05-15T08:23:11.296Z,572
2023-05-15T08:24:27.426Z,580
2023-05-15T08:25:43.565Z,584
2023-05-15T08:26:59.692Z,588
2023-05-15T08:28:15.816Z,588
2023-05-15T08:29:31.939Z,584
2023-05-15T08:30:48.081Z,592
2023-05-15T08:32:04.205Z,584
2023-05-15T08:33:20.341Z,584
2023-05-15T08:34:36.465Z,584
2023-05-15T08:35:52.584Z,592
2023-05-15T08:37:07.727Z,596
2023-05-15T08:38:23.864Z,608
2023-05-15T08:39:39.994Z,620
2023-05-15T08:40:56.145Z,628
2023-05-15T08:42:12.282Z,636
2023-05-15T08:43:28.403Z,644
2023-05-15T08:44:44.551Z,644
2023-05-15T08:46:00.677Z,652
2023-05-15T08:47:16.806Z,656
2023-05-15T08:48:32.953Z,664
2023-05-15T08:49:49.081Z,668
2023-05-15T08:51:05.224Z,668
2023-05-15T08:52:21.347Z,676
2023-05-15T08:53:36.487Z,680
2023-05-15T08:54:52.624Z,692
2023-05-15T08:56:08.745Z,700
2023-05-15T08:57:24.897Z,696
2023-05-15T08:58:41.012Z,696
2023-05-15T08:59:57.149Z,692
2023-05-15T09:01:13.286Z,688
2023-05-15T09:02:29.395Z,684
2023-05-15T09:03:45.532Z,684
2023-05-15T09:05:01.669Z,676
2023-05-15T09:06:17.790Z,660
2023-05-15T09:07:33.928Z,660
2023-05-15T09:08:50.057Z,664
2023-05-15T09:10:05.203Z,676
2023-05-15T09:11:21.342Z,684
2023-05-15T09:12:37.471Z,680
2023-05-15T09:13:53.594Z,676
2023-05-15T09:15:09.716Z,668
2023-05-15T09:16:25.853Z,672
2023-05-15T09:17:41.969Z,668
2023-05-15T09:18:58.098Z,680
2023-05-15T09:20:14.213Z,676
2023-05-15T09:21:30.350Z,700
2023-05-15T09:22:46.466Z,716
2023-05-15T09:24:02.603Z,716
2023-05-15T09:25:18.719Z,728
2023-05-15T09:26:33.866Z,728
2023-05-15T09:27:49.996Z,720
2023-05-15T09:29:06.125Z,700
2023-05-15T09:30:22.255Z,704
2023-05-15T09:31:38.378Z,712
2023-05-15T09:32:54.514Z,736
2023-05-15T09:34:10.636Z,736
2023-05-15T09:35:26.774Z,756
2023-05-15T09:36:42.889Z,768
2023-05-15T09:37:59.019Z,792
2023-05-15T09:39:15.148Z,804
2023-05-15T09:40:31.278Z,832
2023-05-15T09:41:47.401Z,828
2023-05-15T09:43:02.542Z,848
2023-05-15T09:44:18.677Z,868
2023-05-15T09:45:34.789Z,884
2023-05-15T09:46:50.925Z,900
2023-05-15T09:48:07.039Z,892
2023-05-15T09:49:23.177Z,916
2023-05-15T09:50:39.299Z,916
2023-05-15T09:51:55.421Z,916
2023-05-15T09:53:11.536Z,860
2023-05-15T09:54:27.665Z,860
2023-05-15T09:55:43.797Z,856
2023-05-15T09:56:59.918Z,876
2023-05-15T09:58:16.061Z,908
2023-05-15T09:59:31.190Z,916
2023-05-15T10:00:47.326Z,908
2023-05-15T10:02:03.461Z,876
2023-05-15T10:03:19.578Z,884
2023-05-15T10:04:35.722Z,872
2023-05-15T10:05:51.837Z,900
2023-05-15T10:07:06.993Z,880
2023-05-15T10:08:23.113Z,884
2023-05-15T10:09:39.244Z,912
2023-05-15T10:10:55.369Z,920
2023-05-15T10:12:11.489Z,912
2023-05-15T10:13:27.607Z,908
2023-05-15T10:14:43.741Z,916
2023-05-15T10:15:59.851Z,940
2023-05-15T10:17:15.972Z,936
2023-05-15T10:18:32.095Z,928
2023-05-15T10:19:48.229Z,944
2023-05-15T10:21:04.340Z,960
2023-05-15T10:22:20.470Z,960
2023-05-15T10:23:35.606Z,984
2023-05-15T10:24:51.727Z,1008
2023-05-15T10:26:07.871Z,1024
2023-05-15T10:27:23.986Z,1044
2023-05-15T10:28:40.115Z,1036
2023-05-15T10:29:56.245Z,1032
2023-05-15T10:31:12.368Z,1052
2023-05-15T10:32:28.491Z,1096
2023-05-15T10:33:44.614Z,1128
2023-05-15T10:35:00.743Z,1136
2023-05-15T10:36:16.868Z,1160
2023-05-15T10:37:32.987Z,1168
2023-05-15T10:38:49.132Z,1160
2023-05-15T10:40:04.273Z,1136
2023-05-15T10:41:20.395Z,1124
2023-05-15T10:42:36.533Z,1164
2023-05-15T10:43:52.662Z,1188
2023-05-15T10:45:08.770Z,1220
2023-05-15T10:46:24.913Z,1228
2023-05-15T10:47:41.030Z,1236
2023-05-15T10:48:57.144Z,1260
2023-05-15T10:50:13.280Z,1236
2023-05-15T10:51:29.390Z,1200
2023-05-15T10:52:45.520Z,1192
2023-05-15T10:54:01.650Z,1164
2023-05-15T10:55:17.770Z,1172
2023-05-15T10:56:32.906Z,1236
2023-05-15T10:57:49.035Z,1252
2023-05-15T10:59:05.144Z,1288
2023-05-15T11:00:21.281Z,1312
2023-05-15T11:01:37.403Z,1376
2023-05-15T11:02:53.511Z,1416
2023-05-15T11:04:09.642Z,1372
2023-05-15T11:05:25.742Z,2828
2023-05-15T11:06:41.860Z,3168
2023-05-15T11:07:57.974Z,1436
2023-05-15T11:09:14.114Z,1436
2023-05-15T11:10:30.219Z,1432
2023-05-15T11:11:46.342Z,1436
2023-05-15T11:13:01.489Z,1424
2023-05-15T11:14:17.598Z,1488
2023-05-15T11:15:33.721Z,2648
2023-05-15T11:16:49.843Z,5824
2023-05-15T11:18:05.958Z,3608
2023-05-15T11:19:22.082Z,1724
2023-05-15T11:20:38.190Z,1848
2023-05-15T11:21:54.297Z,1704
2023-05-15T11:23:10.414Z,1736
2023-05-15T11:24:26.529Z,1740
2023-05-15T11:25:42.628Z,1824
2023-05-15T11:26:58.747Z,3660
2023-05-15T11:28:14.864Z,7872
2023-05-15T11:29:29.984Z,5336
2023-05-15T11:30:46.090Z,2072
2023-05-15T11:32:02.214Z,2208
2023-05-15T11:33:18.337Z,2180
2023-05-15T11:34:34.446Z,2044
2023-05-15T11:35:50.566Z,2076
2023-05-15T11:37:06.670Z,2236
2023-05-15T11:38:22.784Z,2348
2023-05-15T11:39:38.899Z,2332
2023-05-15T11:40:55.007Z,2280
2023-05-15T11:42:11.126Z,2256
2023-05-15T11:43:27.244Z,2244
2023-05-15T11:44:43.368Z,2256
2023-05-15T11:45:58.502Z,2284
2023-05-15T11:47:14.610Z,2244
2023-05-15T11:48:30.704Z,2268
2023-05-15T11:49:46.807Z,2200
2023-05-15T11:51:02.936Z,2132
2023-05-15T11:52:19.037Z,2320
2023-05-15T11:53:35.153Z,2264
2023-05-15T11:54:51.261Z,2104
2023-05-15T11:56:07.377Z,2272
2023-05-15T11:57:23.500Z,2284
2023-05-15T11:58:39.602Z,2412
2023-05-15T11:59:55.709Z,2552
2023-05-15T12:01:11.825Z,2948
2023-05-15T12:02:26.952Z,2588
2023-05-15T12:03:43.046Z,2440
2023-05-15T12:04:59.162Z,2372
2023-05-15T12:06:15.271Z,2524
2023-05-15T12:07:31.379Z,2644
2023-05-15T12:08:47.480Z,2736
2023-05-15T12:10:03.589Z,2772
2023-05-15T12:11:19.704Z,2852
2023-05-15T12:12:35.820Z,2960
2023-05-15T12:13:51.914Z,3060
2023-05-15T12:15:08.023Z,3096
2023-05-15T12:16:24.137Z,3080
2023-05-15T12:17:40.226Z,3036
2023-05-15T12:18:55.374Z,2980
2023-05-15T12:20:11.485Z,2816
2023-05-15T12:21:27.584Z,2792
2023-05-15T12:22:43.677Z,2724
2023-05-15T12:23:59.800Z,2776
2023-05-15T12:25:15.908Z,2896
2023-05-15T12:26:32.003Z,2996
2023-05-15T12:27:48.098Z,2956
2023-05-15T12:29:04.198Z,2976
2023-05-15T12:30:20.300Z,2952
2023-05-15T12:31:36.417Z,2904
2023-05-15T12:32:52.511Z,2916
2023-05-15T12:34:08.612Z,2768
2023-05-15T12:35:24.723Z,2680
2023-05-15T12:36:39.832Z,2396
2023-05-15T12:37:55.937Z,2044
2023-05-15T12:39:12.035Z,2136
2023-05-15T12:40:28.139Z,2292
2023-05-15T12:41:44.247Z,2352
2023-05-15T12:43:00.340Z,2704
2023-05-15T12:44:16.449Z,2624
2023-05-15T12:45:32.529Z,2184
2023-05-15T12:46:48.654Z,2184
2023-05-15T12:48:04.738Z,2732
2023-05-15T12:49:20.853Z,3536
2023-05-15T12:50:36.948Z,3424
2023-05-15T12:51:53.057Z,3312
2023-05-15T12:53:09.157Z,3108
2023-05-15T12:54:25.238Z,3128
2023-05-15T12:55:41.334Z,3096
2023-05-15T12:56:57.427Z,2836
2023-05-15T12:58:13.535Z,2892
2023-05-15T12:59:29.644Z,2856
2023-05-15T13:00:44.749Z,2924
2023-05-15T13:02:00.844Z,3336
2023-05-15T13:03:16.948Z,3772
2023-05-15T13:04:33.033Z,3856
2023-05-15T13:05:49.149Z,3788
2023-05-15T13:07:05.235Z,3544
2023-05-15T13:08:21.337Z,3048
2023-05-15T13:09:37.424Z,3452
2023-05-15T13:10:53.527Z,3304
2023-05-15T13:12:09.627Z,3276
2023-05-15T13:13:25.721Z,3300
2023-05-15T13:14:41.815Z,3456
2023-05-15T13:15:57.902Z,3456
2023-05-15T13:17:14.002Z,3324
2023-05-15T13:18:29.127Z,3216
2023-05-15T13:19:45.205Z,3072
2023-05-15T13:21:01.313Z,3012
2023-05-15T13:22:17.400Z,3024
2023-05-15T13:23:33.477Z,3100
2023-05-15T13:24:49.582Z,2908
2023-05-15T13:26:05.655Z,2896
2023-05-15T13:27:21.763Z,3012
2023-05-15T13:28:37.866Z,3152
2023-05-15T13:29:53.952Z,3140
2023-05-15T13:31:10.041Z,3604
2023-05-15T13:32:26.154Z,3948
2023-05-15T13:33:42.235Z,3648
2023-05-15T13:34:58.339Z,3468
2023-05-15T13:36:13.466Z,3348
2023-05-15T13:37:29.528Z,3460
2023-05-15T13:38:45.609Z,3356
2023-05-15T13:40:01.710Z,3284
2023-05-15T13:41:17.798Z,3248
2023-05-15T13:42:33.905Z,3368
2023-05-15T13:43:50.008Z,3236
2023-05-15T13:45:06.094Z,2904
2023-05-15T13:46:22.189Z,2772
2023-05-15T13:47:38.292Z,2688
2023-05-15T13:48:54.381Z,2672
2023-05-15T13:50:10.489Z,2636
2023-05-15T13:51:26.573Z,2620
2023-05-15T13:52:42.682Z,2456
2023-05-15T13:53:57.796Z,2324
2023-05-15T13:55:13.898Z,2256
2023-05-15T13:56:29.990Z,2352
2023-05-15T13:57:46.087Z,2404
2023-05-15T13:59:02.186Z,2268
2023-05-15T14:00:18.262Z,2140
2023-05-15T14:01:34.371Z,2020
2023-05-15T14:02:50.463Z,1764
2023-05-15T14:04:06.544Z,1844
2023-05-15T14:05:22.651Z,1656
2023-05-15T14:06:38.731Z,1280
2023-05-15T14:07:54.833Z,1776
2023-05-15T14:09:10.928Z,1960
2023-05-15T14:10:27.029Z,2132
2023-05-15T14:11:42.134Z,2340
2023-05-15T14:12:58.235Z,2552
2023-05-15T14:14:14.316Z,2704
2023-05-15T14:15:30.410Z,2956
2023-05-15T14:16:46.526Z,3232
2023-05-15T14:18:02.627Z,3944
2023-05-15T14:19:18.701Z,7064
2023-05-15T14:20:34.811Z,3788
2023-05-15T14:21:50.903Z,6728
2023-05-15T14:23:06.016Z,13664
2023-05-15T14:24:22.103Z,11024
2023-05-15T14:25:38.197Z,6212
2023-05-15T14:26:54.303Z,3108
2023-05-15T14:28:10.390Z,2768
2023-05-15T14:29:26.481Z,2660
2023-05-15T14:30:42.583Z,2748
2023-05-15T14:31:58.679Z,2760
2023-05-15T14:33:14.756Z,2488
2023-05-15T14:34:30.851Z,2008
2023-05-15T14:35:46.952Z,1480
2023-05-15T14:37:03.034Z,1296
2023-05-15T14:38:19.148Z,1444
2023-05-15T14:39:35.241Z,1216
2023-05-15T14:40:50.356Z,1528
2023-05-15T14:42:06.442Z,1528
2023-05-15T14:43:22.537Z,1492
2023-05-15T14:44:38.644Z,1820
2023-05-15T14:45:54.747Z,1912
2023-05-15T14:47:10.835Z,1752
2023-05-15T14:48:26.936Z,1792
2023-05-15T14:49:43.044Z,1592
2023-05-15T14:50:59.125Z,1156
2023-05-15T14:52:15.243Z,896
2023-05-15T14:53:31.327Z,1100
2023-05-15T14:54:47.436Z,1352
2023-05-15T14:56:03.536Z,964
2023-05-15T14:57:19.647Z,1172
2023-05-15T14:58:34.765Z,1228
2023-05-15T14:59:50.861Z,1312
2023-05-15T15:01:06.941Z,1320
2023-05-15T15:02:23.055Z,1296
2023-05-15T15:03:39.157Z,1224
2023-05-15T15:04:55.259Z,1108
2023-05-15T15:06:11.344Z,1136
2023-05-15T15:07:27.448Z,1184
2023-05-15T15:08:43.529Z,1232
2023-05-15T15:09:59.629Z,1288
2023-05-15T15:11:15.716Z,1332
2023-05-15T15:12:31.821Z,1312
2023-05-15T15:13:47.920Z,1220
2023-05-15T15:15:04.006Z,1096
2023-05-15T15:16:19.140Z,1040
2023-05-15T15:17:35.227Z,1024
2023-05-15T15:18:51.336Z,1012
2023-05-15T15:20:07.444Z,996
2023-05-15T15:21:23.540Z,1040
2023-05-15T15:22:39.625Z,1052
2023-05-15T15:23:55.748Z,1048
2023-05-15T15:25:11.829Z,1128
2023-05-15T15:26:27.936Z,1084
2023-05-15T15:27:44.032Z,1112
2023-05-15T15:29:00.139Z,1216
2023-05-15T15:30:16.227Z,1228
2023-05-15T15:31:32.336Z,1068
2023-05-15T15:32:48.443Z,1076
2023-05-15T15:34:03.563Z,1028
2023-05-15T15:35:19.666Z,988
2023-05-15T15:36:35.766Z,980
2023-05-15T15:37:51.863Z,948
2023-05-15T15:39:07.970Z,948
2023-05-15T15:40:24.077Z,952
2023-05-15T15:41:40.187Z,960
2023-05-15T15:42:56.288Z,1056
2023-05-15T15:44:12.405Z,1876
2023-05-15T15:45:28.498Z,1092
2023-05-15T15:46:44.611Z,1256
2023-05-15T15:48:00.718Z,1456
2023-05-15T15:49:16.805Z,1880
2023-05-15T15:50:32.918Z,1616
2023-05-15T15:51:48.023Z,1584
2023-05-15T15:53:04.125Z,1616
2023-05-15T15:54:20.219Z,1760
2023-05-15T15:55:36.314Z,1940
2023-05-15T15:56:52.414Z,1940
2023-05-15T15:58:08.527Z,2324
2023-05-15T15:59:24.617Z,2560
2023-05-15T16:00:40.725Z,2212
2023-05-15T16:01:56.827Z,2052
2023-05-15T16:03:12.918Z,2132
2023-05-15T16:04:29.003Z,3136
2023-05-15T16:05:45.110Z,4220
2023-05-15T16:07:01.218Z,2624
2023-05-15T16:08:17.329Z,1948
2023-05-15T16:09:32.441Z,1920
2023-05-15T16:10:48.536Z,1196
2023-05-15T16:12:04.650Z,1004
2023-05-15T16:13:20.754Z,996
2023-05-15T16:14:36.860Z,872
2023-05-15T16:15:52.942Z,872
2023-05-15T16:17:09.042Z,944
2023-05-15T16:18:25.151Z,816
2023-05-15T16:19:41.236Z,692
2023-05-15T16:20:57.347Z,612
2023-05-15T16:22:13.442Z,584
2023-05-15T16:23:29.528Z,544
2023-05-15T16:24:45.630Z,484
2023-05-15T16:26:01.744Z,364
2023-05-15T16:27:16.857Z,360
2023-05-15T16:28:32.958Z,280
2023-05-15T16:29:49.067Z,172
2023-05-15T16:31:05.162Z,140
2023-05-15T16:32:21.255Z,128
2023-05-15T16:33:37.359Z,124
2023-05-15T16:34:53.461Z,140
2023-05-15T16:36:09.575Z,168
2023-05-15T16:37:25.675Z,200
2023-05-15T16:38:41.777Z,212
2023-05-15T16:39:57.879Z,232
2023-05-15T16:41:14.007Z,248
2023-05-15T16:42:30.104Z,248
2023-05-15T16:43:45.222Z,240
2023-05-15T16:45:01.331Z,232
2023-05-15T16:46:17.435Z,224
2023-05-15T16:47:33.554Z,216
2023-05-15T16:48:49.664Z,212
2023-05-15T16:50:05.774Z,196
2023-05-15T16:51:21.894Z,192
2023-05-15T16:52:37.990Z,188
2023-05-15T16:53:54.111Z,192
2023-05-15T16:55:10.226Z,192
2023-05-15T16:56:26.324Z,200
2023-05-15T16:57:42.429Z,200
2023-05-15T16:58:58.542Z,196
2023-05-15T17:00:13.672Z,192
2023-05-15T17:01:29.787Z,152
2023-05-15T17:02:45.891Z,104
2023-05-15T17:04:02.011Z,76
2023-05-15T17:05:18.112Z,68
2023-05-15T17:06:34.215Z,76
2023-05-15T17:07:50.321Z,76
2023-05-15T17:09:06.433Z,84
2023-05-15T17:10:22.540Z,88
2023-05-15T17:11:38.648Z,92
2023-05-15T17:12:54.772Z,96
2023-05-15T17:14:10.879Z,100
2023-05-15T17:15:26.981Z,104
2023-05-15T17:16:42.110Z,112
2023-05-15T17:17:58.215Z,124
2023-05-15T17:19:14.339Z,136
2023-05-15T17:20:30.454Z,160
2023-05-15T17:21:46.555Z,192
2023-05-15T17:23:02.678Z,228
2023-05-15T17:24:18.802Z,260
2023-05-15T17:25:34.901Z,272
2023-05-15T17:26:51.017Z,288
2023-05-15T17:28:07.120Z,300
2023-05-15T17:29:23.249Z,308
2023-05-15T17:31:55.480Z,324
2023-05-15T17:33:10.615Z,312
2023-05-15T17:34:26.722Z,304
2023-05-15T17:35:42.830Z,312